Jackson, Montana
Current Conditions -  °F | °C
As of 3:35 PM on Monday 24 Nov 2014 (Local Time) from KSMN Reporting Station
Clear Clear  
Wind Chill: 32°   Ceiling: Unl
Heat Index: 36°   Visibility: 10mi
Dew Point: 25°   Wind: 5mph
Humidity: 65%   Direction: 180°S
Pressure: 30.31"   Gusts: NA
Location:  45.37°N, 113.41°W
Report Text: KSMN 242235Z AUTO 18004KT 10SM CLR 02/M04 A3031 RMK AO1
Loading
Personal Weather Stations






























Interactive Weather Map New forecast layout! Learn more

10-Day Weather Forecast

Advertisements
Track Severe Weather on mobile